VIR9 EGLL-KJFK
Flight info
| Callsign | VIR9 |
|---|---|
| Flight time | N/A |
| Altitude | 34000 |
| Route | CPT L9 BUCGO DCT FELCA DCT OFSOX DCT BANBA DCT TOBOR/M082F360 DCT 53N020W 53N030W 5230N04000W 50N050W DCT ELSIR/N0467F360 N402C ALLEX DCT ENE PARCH4 |
| Aircraft | A346/H-SDE2E3FGHIJ3J4J5M1RWXY/LB1D1 |
Departure
| Time | 2026-05-06 08:24 |
|---|---|
| Airport | London Heathrow Airport (EGLL) |
Arrival
| Time | N/A |
|---|---|
| Airport | John F. Kennedy International Airport (KJFK) |
| Time | Latitude | Longitude | Altitude | Speed | Heading |
|---|---|---|---|---|---|
| 2026-05-06 07:47 | 51.47211 | -0.46259 | 96 ft | 0 kts | 56° |
| 2026-05-06 08:10 | 51.47210 | -0.46260 | 95 ft | 1 kts | 57° |
| 2026-05-06 08:10 | 51.47204 | -0.46275 | 95 ft | 0 kts | 56° |
| 2026-05-06 08:10 | 51.47198 | -0.46289 | 95 ft | 1 kts | 50° |
| 2026-05-06 08:10 | 51.47187 | -0.46304 | 95 ft | 2 kts | 31° |
| 2026-05-06 08:11 | 51.47174 | -0.46315 | 95 ft | 2 kts | 16° |
| 2026-05-06 08:11 | 51.47159 | -0.46319 | 95 ft | 2 kts | 1° |
| 2026-05-06 08:11 | 51.47144 | -0.46316 | 95 ft | 2 kts | 346° |
| 2026-05-06 08:11 | 51.47130 | -0.46308 | 95 ft | 2 kts | 330° |
| 2026-05-06 08:12 | 51.47124 | -0.46302 | 95 ft | 0 kts | 325° |
| 2026-05-06 08:16 | 51.47125 | -0.46303 | 94 ft | 1 kts | 325° |
| 2026-05-06 08:16 | 51.47148 | -0.46327 | 94 ft | 6 kts | 327° |
| 2026-05-06 08:16 | 51.47196 | -0.46377 | 95 ft | 9 kts | 327° |
| 2026-05-06 08:16 | 51.47242 | -0.46459 | 95 ft | 9 kts | 277° |
| 2026-05-06 08:17 | 51.47239 | -0.46538 | 95 ft | 9 kts | 270° |
| 2026-05-06 08:17 | 51.47239 | -0.46659 | 95 ft | 10 kts | 270° |
| 2026-05-06 08:17 | 51.47239 | -0.46781 | 95 ft | 11 kts | 270° |
| 2026-05-06 08:17 | 51.47229 | -0.46857 | 95 ft | 4 kts | 210° |
| 2026-05-06 08:18 | 51.47185 | -0.46866 | 95 ft | 9 kts | 181° |
| 2026-05-06 08:18 | 51.47089 | -0.46867 | 94 ft | 18 kts | 180° |
| 2026-05-06 08:18 | 51.46953 | -0.46865 | 94 ft | 21 kts | 179° |
| 2026-05-06 08:18 | 51.46798 | -0.46863 | 93 ft | 22 kts | 180° |
| 2026-05-06 08:19 | 51.46699 | -0.46863 | 93 ft | 8 kts | 180° |
| 2026-05-06 08:19 | 51.46664 | -0.46903 | 93 ft | 7 kts | 257° |
| 2026-05-06 08:19 | 51.46656 | -0.47009 | 93 ft | 12 kts | 268° |
| 2026-05-06 08:19 | 51.46655 | -0.47177 | 93 ft | 18 kts | 270° |
| 2026-05-06 08:20 | 51.46655 | -0.47397 | 93 ft | 20 kts | 270° |
| 2026-05-06 08:20 | 51.46654 | -0.47625 | 93 ft | 20 kts | 270° |
| 2026-05-06 08:20 | 51.46653 | -0.47862 | 93 ft | 21 kts | 270° |
| 2026-05-06 08:20 | 51.46653 | -0.48105 | 94 ft | 22 kts | 270° |
| 2026-05-06 08:21 | 51.46652 | -0.48252 | 94 ft | 22 kts | 270° |
| 2026-05-06 08:21 | 51.46652 | -0.48390 | 94 ft | 7 kts | 270° |
| 2026-05-06 08:21 | 51.46639 | -0.48459 | 93 ft | 6 kts | 212° |
| 2026-05-06 08:21 | 51.46582 | -0.48468 | 93 ft | 11 kts | 181° |
| 2026-05-06 08:22 | 51.46510 | -0.48468 | 93 ft | 7 kts | 176° |
| 2026-05-06 08:22 | 51.46484 | -0.48425 | 93 ft | 6 kts | 109° |
| 2026-05-06 08:22 | 51.46479 | -0.48336 | 93 ft | 11 kts | 92° |
| 2026-05-06 08:22 | 51.46478 | -0.48237 | 93 ft | 1 kts | 90° |
| 2026-05-06 08:23 | 51.46479 | -0.48002 | 93 ft | 51 kts | 90° |
| 2026-05-06 08:23 | 51.46483 | -0.47088 | 93 ft | 111 kts | 90° |
| 2026-05-06 08:23 | 51.46487 | -0.45543 | 93 ft | 161 kts | 89° |
| 2026-05-06 08:23 | 51.46490 | -0.43582 | 208 ft | 188 kts | 87° |
| 2026-05-06 08:24 | 51.46496 | -0.41467 | 656 ft | 189 kts | 88° |
| 2026-05-06 08:24 | 51.46455 | -0.39345 | 1102 ft | 195 kts | 99° |
| 2026-05-06 08:24 | 51.45804 | -0.37449 | 1430 ft | 205 kts | 136° |
| 2026-05-06 08:24 | 51.44492 | -0.36459 | 1644 ft | 218 kts | 173° |
| 2026-05-06 08:25 | 51.42983 | -0.36843 | 1877 ft | 230 kts | 207° |
| 2026-05-06 08:25 | 51.41598 | -0.38314 | 2142 ft | 244 kts | 219° |
| 2026-05-06 08:25 | 51.40236 | -0.40058 | 2448 ft | 260 kts | 221° |
| 2026-05-06 08:25 | 51.38829 | -0.41947 | 2862 ft | 271 kts | 226° |
| 2026-05-06 08:26 | 51.37793 | -0.44445 | 3466 ft | 270 kts | 256° |
| 2026-05-06 08:26 | 51.37614 | -0.47357 | 4116 ft | 266 kts | 283° |
| 2026-05-06 08:26 | 51.38021 | -0.50235 | 4777 ft | 268 kts | 290° |
| 2026-05-06 08:26 | 51.38552 | -0.53116 | 5420 ft | 273 kts | 291° |
| 2026-05-06 08:27 | 51.39109 | -0.56022 | 6063 ft | 277 kts | 291° |
| 2026-05-06 08:27 | 51.39686 | -0.58970 | 6761 ft | 279 kts | 291° |
| 2026-05-06 08:27 | 51.40269 | -0.61878 | 7470 ft | 279 kts | 291° |
| 2026-05-06 08:27 | 51.40868 | -0.64847 | 8174 ft | 279 kts | 291° |
| 2026-05-06 08:28 | 51.41474 | -0.67771 | 8714 ft | 280 kts | 290° |
| 2026-05-06 08:28 | 51.42097 | -0.70724 | 9104 ft | 284 kts | 291° |
| 2026-05-06 08:28 | 51.42737 | -0.73707 | 9806 ft | 284 kts | 291° |
| 2026-05-06 08:28 | 51.43382 | -0.76675 | 10458 ft | 285 kts | 291° |
| 2026-05-06 08:29 | 51.44055 | -0.79732 | 10769 ft | 300 kts | 291° |
| 2026-05-06 08:29 | 51.44768 | -0.82934 | 11045 ft | 315 kts | 291° |
| 2026-05-06 08:29 | 51.45524 | -0.86313 | 11320 ft | 330 kts | 291° |
| 2026-05-06 08:29 | 51.46316 | -0.89841 | 11589 ft | 345 kts | 291° |
| 2026-05-06 08:30 | 51.47272 | -0.93473 | 11856 ft | 359 kts | 296° |
| 2026-05-06 08:30 | 51.48375 | -0.97125 | 12185 ft | 371 kts | 297° |
| 2026-05-06 08:30 | 51.49504 | -1.00833 | 12731 ft | 376 kts | 297° |
| 2026-05-06 08:30 | 51.50640 | -1.04614 | 13332 ft | 379 kts | 296° |
| 2026-05-06 08:31 | 51.51777 | -1.08451 | 13914 ft | 383 kts | 296° |
| 2026-05-06 08:31 | 51.52919 | -1.12337 | 14488 ft | 387 kts | 296° |
| 2026-05-06 08:31 | 51.54065 | -1.16264 | 14898 ft | 390 kts | 296° |
| 2026-05-06 08:31 | 51.55204 | -1.20183 | 15018 ft | 390 kts | 296° |
| 2026-05-06 08:32 | 51.56345 | -1.24120 | 15028 ft | 389 kts | 296° |
| 2026-05-06 08:32 | 51.57473 | -1.28025 | 15033 ft | 388 kts | 295° |
| 2026-05-06 08:32 | 51.58609 | -1.31958 | 15040 ft | 387 kts | 295° |
| 2026-05-06 08:32 | 51.59735 | -1.35864 | 15045 ft | 386 kts | 295° |
| 2026-05-06 08:33 | 51.60887 | -1.39762 | 15025 ft | 385 kts | 297° |
| 2026-05-06 08:33 | 51.62126 | -1.43533 | 15014 ft | 385 kts | 299° |
| 2026-05-06 08:33 | 51.63399 | -1.47339 | 15009 ft | 385 kts | 299° |
| 2026-05-06 08:33 | 51.64652 | -1.51084 | 15006 ft | 385 kts | 299° |
| 2026-05-06 08:34 | 51.65927 | -1.54923 | 15185 ft | 391 kts | 297° |
| 2026-05-06 08:34 | 51.67151 | -1.63386 | 16323 ft | 394 kts | 277° |
| 2026-05-06 08:34 | 51.67425 | -1.67816 | 16807 ft | 398 kts | 276° |
| 2026-05-06 08:35 | 51.67709 | -1.72229 | 17277 ft | 402 kts | 276° |
| 2026-05-06 08:35 | 51.68021 | -1.76725 | 17794 ft | 404 kts | 277° |
| 2026-05-06 08:35 | 51.68348 | -1.81189 | 18306 ft | 407 kts | 277° |
| 2026-05-06 08:35 | 51.68693 | -1.85736 | 18815 ft | 409 kts | 277° |
| 2026-05-06 08:36 | 51.69044 | -1.90277 | 19315 ft | 412 kts | 277° |
| 2026-05-06 08:36 | 51.69406 | -1.94922 | 19809 ft | 414 kts | 277° |
| 2026-05-06 08:36 | 51.69765 | -1.99520 | 20285 ft | 417 kts | 277° |
| 2026-05-06 08:36 | 51.70123 | -2.04113 | 20751 ft | 419 kts | 277° |
| 2026-05-06 08:37 | 51.70488 | -2.08806 | 21213 ft | 422 kts | 277° |
| 2026-05-06 08:37 | 51.70849 | -2.13469 | 21655 ft | 425 kts | 277° |
| 2026-05-06 08:37 | 51.71214 | -2.18206 | 22084 ft | 428 kts | 277° |
| 2026-05-06 08:37 | 51.71578 | -2.22953 | 22506 ft | 430 kts | 277° |
| 2026-05-06 08:38 | 51.71942 | -2.27719 | 22914 ft | 433 kts | 277° |
| 2026-05-06 08:38 | 51.72309 | -2.32546 | 23317 ft | 436 kts | 277° |
| 2026-05-06 08:38 | 51.72675 | -2.37393 | 23713 ft | 439 kts | 277° |
| 2026-05-06 08:38 | 51.73043 | -2.42285 | 24102 ft | 442 kts | 277° |
| 2026-05-06 08:39 | 51.73411 | -2.47213 | 24480 ft | 444 kts | 277° |
| 2026-05-06 08:39 | 51.73774 | -2.52100 | 24850 ft | 447 kts | 277° |
| 2026-05-06 08:39 | 51.74142 | -2.57078 | 25230 ft | 449 kts | 277° |
| 2026-05-06 08:39 | 51.74508 | -2.62067 | 25604 ft | 452 kts | 277° |
| 2026-05-06 08:40 | 51.74877 | -2.67114 | 25981 ft | 454 kts | 276° |
| 2026-05-06 08:40 | 51.75243 | -2.72165 | 26357 ft | 457 kts | 276° |
| 2026-05-06 08:40 | 51.75610 | -2.77246 | 26724 ft | 459 kts | 276° |
| 2026-05-06 08:40 | 51.75976 | -2.82355 | 27084 ft | 461 kts | 276° |
| 2026-05-06 08:41 | 51.76344 | -2.87529 | 27435 ft | 464 kts | 276° |
| 2026-05-06 08:41 | 51.76710 | -2.92696 | 27781 ft | 466 kts | 276° |
| 2026-05-06 08:41 | 51.77082 | -2.97988 | 28210 ft | 465 kts | 276° |
| 2026-05-06 08:41 | 51.77443 | -3.03155 | 28676 ft | 463 kts | 276° |
| 2026-05-06 08:42 | 51.77799 | -3.08289 | 29135 ft | 462 kts | 276° |
| 2026-05-06 08:42 | 51.78152 | -3.13414 | 29574 ft | 461 kts | 276° |
| 2026-05-06 08:42 | 51.78502 | -3.18528 | 30028 ft | 460 kts | 276° |
| 2026-05-06 08:42 | 51.78847 | -3.23612 | 30497 ft | 458 kts | 276° |
| 2026-05-06 08:43 | 51.79190 | -3.28685 | 30968 ft | 457 kts | 276° |
| 2026-05-06 08:43 | 51.79533 | -3.33805 | 31439 ft | 455 kts | 276° |
| 2026-05-06 08:43 | 51.79869 | -3.38848 | 31890 ft | 454 kts | 276° |
| 2026-05-06 08:43 | 51.80202 | -3.43876 | 32328 ft | 453 kts | 277° |
| 2026-05-06 08:44 | 51.80533 | -3.48898 | 32699 ft | 453 kts | 277° |
| 2026-05-06 08:44 | 51.80866 | -3.54000 | 33026 ft | 454 kts | 277° |
| 2026-05-06 08:44 | 51.81194 | -3.59045 | 33340 ft | 455 kts | 277° |
| 2026-05-06 08:44 | 51.81520 | -3.64086 | 33658 ft | 456 kts | 277° |
| 2026-05-06 08:45 | 51.81847 | -3.69185 | 33941 ft | 456 kts | 276° |
| 2026-05-06 08:45 | 51.82171 | -3.74265 | 34058 ft | 457 kts | 276° |
| 2026-05-06 08:45 | 51.82494 | -3.79369 | 34100 ft | 457 kts | 276° |
| 2026-05-06 08:46 | 51.83134 | -3.89599 | 34079 ft | 455 kts | 276° |
| 2026-05-06 08:46 | 51.83759 | -3.99736 | 34044 ft | 455 kts | 276° |
| 2026-05-06 08:47 | 51.84374 | -4.09847 | 34017 ft | 454 kts | 276° |
| 2026-05-06 08:47 | 51.84979 | -4.19956 | 34000 ft | 454 kts | 276° |
| 2026-05-06 08:48 | 51.85580 | -4.30123 | 34006 ft | 454 kts | 276° |
| 2026-05-06 08:48 | 51.86169 | -4.40260 | 34013 ft | 454 kts | 276° |
| 2026-05-06 08:49 | 51.86749 | -4.50379 | 34014 ft | 454 kts | 276° |
| 2026-05-06 08:49 | 51.87320 | -4.60493 | 34015 ft | 454 kts | 276° |
| 2026-05-06 08:50 | 51.87884 | -4.70666 | 34014 ft | 454 kts | 275° |
| 2026-05-06 08:50 | 51.88441 | -4.80848 | 34016 ft | 454 kts | 275° |
| 2026-05-06 08:51 | 51.88985 | -4.90956 | 34021 ft | 454 kts | 275° |
| 2026-05-06 08:51 | 51.89523 | -5.01120 | 34023 ft | 454 kts | 275° |
| 2026-05-06 08:52 | 51.90054 | -5.11318 | 34026 ft | 454 kts | 275° |
| 2026-05-06 08:52 | 51.90571 | -5.21415 | 34028 ft | 454 kts | 275° |
| 2026-05-06 08:53 | 51.91081 | -5.31543 | 34029 ft | 453 kts | 275° |
| 2026-05-06 08:53 | 51.91583 | -5.41696 | 34030 ft | 453 kts | 275° |
| 2026-05-06 08:54 | 51.92074 | -5.51813 | 34031 ft | 452 kts | 275° |
| 2026-05-06 08:54 | 51.92558 | -5.61959 | 34032 ft | 452 kts | 275° |
| 2026-05-06 08:55 | 51.93031 | -5.72087 | 34034 ft | 451 kts | 274° |
| 2026-05-06 08:55 | 51.93492 | -5.82157 | 34035 ft | 451 kts | 274° |
| 2026-05-06 08:56 | 51.93943 | -5.92203 | 34036 ft | 450 kts | 274° |
| 2026-05-06 08:56 | 51.94387 | -6.02308 | 34035 ft | 450 kts | 274° |
| 2026-05-06 08:57 | 51.94820 | -6.12362 | 34033 ft | 449 kts | 274° |
| 2026-05-06 08:57 | 51.95282 | -6.22432 | 34034 ft | 449 kts | 276° |
| 2026-05-06 08:58 | 51.96156 | -6.32389 | 34035 ft | 449 kts | 279° |
| 2026-05-06 08:58 | 51.97157 | -6.42401 | 34036 ft | 449 kts | 279° |
| 2026-05-06 08:59 | 51.98138 | -6.52306 | 34038 ft | 449 kts | 279° |
| 2026-05-06 08:59 | 51.99120 | -6.62343 | 34040 ft | 449 kts | 279° |
| 2026-05-06 09:00 | 52.00087 | -6.72329 | 34042 ft | 449 kts | 278° |
| 2026-05-06 09:00 | 52.01044 | -6.82301 | 34043 ft | 450 kts | 278° |
| 2026-05-06 09:01 | 52.01992 | -6.92281 | 34041 ft | 450 kts | 278° |
| 2026-05-06 09:01 | 52.02934 | -7.02269 | 34039 ft | 449 kts | 278° |
| 2026-05-06 09:02 | 52.03865 | -7.12256 | 34042 ft | 447 kts | 278° |
| 2026-05-06 09:02 | 52.04783 | -7.22192 | 34043 ft | 447 kts | 278° |
| 2026-05-06 09:03 | 52.05694 | -7.32156 | 34043 ft | 446 kts | 278° |
| 2026-05-06 09:03 | 52.06594 | -7.42094 | 34043 ft | 446 kts | 278° |
| 2026-05-06 09:04 | 52.07485 | -7.52021 | 34042 ft | 446 kts | 278° |
| 2026-05-06 09:04 | 52.08371 | -7.61986 | 34041 ft | 445 kts | 278° |
| 2026-05-06 09:05 | 52.09245 | -7.71927 | 34040 ft | 445 kts | 278° |
| 2026-05-06 09:05 | 52.10115 | -7.81912 | 34039 ft | 445 kts | 277° |
| 2026-05-06 09:06 | 52.10966 | -7.91788 | 34037 ft | 445 kts | 277° |
| 2026-05-06 09:06 | 52.11812 | -8.01717 | 34037 ft | 444 kts | 277° |
| 2026-05-06 09:07 | 52.12653 | -8.11680 | 34039 ft | 445 kts | 277° |
| 2026-05-06 09:07 | 52.13484 | -8.21627 | 34040 ft | 446 kts | 277° |
| 2026-05-06 09:08 | 52.14313 | -8.31651 | 34040 ft | 447 kts | 278° |
| 2026-05-06 09:08 | 52.15134 | -8.41674 | 34040 ft | 447 kts | 278° |
| 2026-05-06 09:09 | 52.15939 | -8.51622 | 34039 ft | 447 kts | 278° |
| 2026-05-06 09:09 | 52.16742 | -8.61636 | 34038 ft | 447 kts | 278° |
| 2026-05-06 09:10 | 52.17533 | -8.71627 | 34037 ft | 447 kts | 277° |
| 2026-05-06 09:10 | 52.18318 | -8.81652 | 34036 ft | 447 kts | 277° |
| 2026-05-06 09:11 | 52.19098 | -8.91709 | 34035 ft | 447 kts | 277° |
| 2026-05-06 09:11 | 52.19862 | -9.01698 | 34034 ft | 447 kts | 277° |
| 2026-05-06 09:12 | 52.20617 | -9.11733 | 34033 ft | 447 kts | 277° |
| 2026-05-06 09:12 | 52.21363 | -9.21742 | 34029 ft | 447 kts | 277° |
| 2026-05-06 09:13 | 52.22105 | -9.31780 | 34027 ft | 447 kts | 277° |
| 2026-05-06 09:13 | 52.22835 | -9.41765 | 34027 ft | 446 kts | 277° |
| 2026-05-06 09:14 | 52.23557 | -9.51793 | 34031 ft | 446 kts | 277° |
| 2026-05-06 09:14 | 52.24273 | -9.61826 | 34035 ft | 446 kts | 277° |
| 2026-05-06 09:15 | 52.24980 | -9.71855 | 34038 ft | 446 kts | 276° |
| 2026-05-06 09:15 | 52.25674 | -9.81827 | 34039 ft | 445 kts | 276° |
| 2026-05-06 09:16 | 52.26363 | -9.91839 | 34040 ft | 445 kts | 276° |
| 2026-05-06 09:16 | 52.27043 | -10.01839 | 34041 ft | 445 kts | 276° |
| 2026-05-06 09:17 | 52.27717 | -10.11895 | 34037 ft | 445 kts | 276° |
| 2026-05-06 09:17 | 52.28377 | -10.21873 | 34032 ft | 445 kts | 276° |
| 2026-05-06 09:18 | 52.29031 | -10.31891 | 34030 ft | 445 kts | 276° |
| 2026-05-06 09:18 | 52.29677 | -10.41921 | 34031 ft | 445 kts | 276° |
| 2026-05-06 09:19 | 52.30313 | -10.51943 | 34039 ft | 445 kts | 277° |
| 2026-05-06 09:19 | 52.30943 | -10.62010 | 34043 ft | 446 kts | 277° |
| 2026-05-06 09:20 | 52.31564 | -10.72067 | 34045 ft | 447 kts | 276° |
| 2026-05-06 09:20 | 52.32177 | -10.82133 | 34046 ft | 447 kts | 276° |
| 2026-05-06 09:21 | 52.32784 | -10.92203 | 34045 ft | 447 kts | 276° |
| 2026-05-06 09:21 | 52.33380 | -11.02277 | 34045 ft | 448 kts | 276° |
| 2026-05-06 09:22 | 52.33971 | -11.12418 | 34044 ft | 448 kts | 277° |
| 2026-05-06 09:22 | 52.34551 | -11.22501 | 34044 ft | 449 kts | 277° |
| 2026-05-06 09:23 | 52.35126 | -11.32656 | 34044 ft | 450 kts | 277° |
| 2026-05-06 09:23 | 52.35692 | -11.42802 | 34044 ft | 451 kts | 277° |
| 2026-05-06 09:24 | 52.36250 | -11.52974 | 34044 ft | 451 kts | 277° |
| 2026-05-06 09:24 | 52.36802 | -11.63188 | 34044 ft | 452 kts | 277° |
| 2026-05-06 09:25 | 52.37346 | -11.73428 | 34044 ft | 452 kts | 276° |
| 2026-05-06 09:25 | 52.37879 | -11.83611 | 34044 ft | 452 kts | 276° |
| 2026-05-06 09:26 | 52.38408 | -11.93896 | 34045 ft | 453 kts | 276° |
| 2026-05-06 09:26 | 52.38924 | -12.04108 | 34045 ft | 453 kts | 276° |
| 2026-05-06 09:27 | 52.39431 | -12.14334 | 34045 ft | 454 kts | 276° |
| 2026-05-06 09:27 | 52.39932 | -12.24607 | 34045 ft | 454 kts | 276° |
| 2026-05-06 09:28 | 52.40425 | -12.34900 | 34045 ft | 454 kts | 276° |
| 2026-05-06 09:28 | 52.40907 | -12.45149 | 34046 ft | 454 kts | 277° |
| 2026-05-06 09:29 | 52.41385 | -12.55456 | 34046 ft | 454 kts | 277° |
| 2026-05-06 09:29 | 52.41850 | -12.65701 | 34046 ft | 455 kts | 276° |
| 2026-05-06 09:30 | 52.42308 | -12.76009 | 34045 ft | 456 kts | 276° |
| 2026-05-06 09:30 | 52.42760 | -12.86405 | 34046 ft | 456 kts | 276° |
| 2026-05-06 09:31 | 52.43200 | -12.96718 | 34046 ft | 457 kts | 277° |
| 2026-05-06 09:31 | 52.43634 | -13.07110 | 34046 ft | 458 kts | 277° |
| 2026-05-06 09:32 | 52.44057 | -13.17447 | 34046 ft | 459 kts | 277° |
| 2026-05-06 09:32 | 52.44473 | -13.27862 | 34046 ft | 460 kts | 277° |
| 2026-05-06 09:33 | 52.44882 | -13.38323 | 34046 ft | 461 kts | 277° |
| 2026-05-06 09:33 | 52.45283 | -13.48831 | 34046 ft | 463 kts | 277° |
| 2026-05-06 09:34 | 52.45673 | -13.59285 | 34047 ft | 464 kts | 277° |
| 2026-05-06 09:34 | 52.46057 | -13.69820 | 34047 ft | 465 kts | 277° |
| 2026-05-06 09:35 | 52.46434 | -13.80407 | 34048 ft | 466 kts | 277° |
| 2026-05-06 09:35 | 52.46800 | -13.90969 | 34049 ft | 467 kts | 277° |
| 2026-05-06 09:36 | 52.47159 | -14.01621 | 34050 ft | 468 kts | 277° |
| 2026-05-06 09:36 | 52.47506 | -14.12202 | 34050 ft | 469 kts | 277° |
| 2026-05-06 09:37 | 52.47845 | -14.22861 | 34049 ft | 469 kts | 277° |
| 2026-05-06 09:37 | 52.48175 | -14.33498 | 34048 ft | 469 kts | 277° |
| 2026-05-06 09:38 | 52.48497 | -14.44224 | 34050 ft | 469 kts | 277° |
| 2026-05-06 09:38 | 52.48806 | -14.54829 | 34052 ft | 469 kts | 277° |
| 2026-05-06 09:39 | 52.49108 | -14.65524 | 34052 ft | 468 kts | 276° |
| 2026-05-06 09:39 | 52.49398 | -14.76150 | 34052 ft | 468 kts | 276° |
| 2026-05-06 09:40 | 52.49675 | -14.86760 | 34052 ft | 468 kts | 276° |
| 2026-05-06 09:40 | 52.50410 | -15.02593 | 34052 ft | 463 kts | 282° |
| 2026-05-06 09:41 | 52.51567 | -15.12894 | 34052 ft | 462 kts | 285° |
| 2026-05-06 09:41 | 52.52820 | -15.23200 | 34053 ft | 461 kts | 285° |
| 2026-05-06 09:42 | 52.54061 | -15.33492 | 34053 ft | 461 kts | 285° |
| 2026-05-06 09:42 | 52.55289 | -15.43786 | 34053 ft | 461 kts | 285° |
| 2026-05-06 09:43 | 52.56511 | -15.54143 | 34053 ft | 461 kts | 285° |
| 2026-05-06 09:43 | 52.57719 | -15.64476 | 34051 ft | 461 kts | 285° |
| 2026-05-06 09:44 | 52.58918 | -15.74805 | 34050 ft | 462 kts | 285° |
| 2026-05-06 09:44 | 52.60110 | -15.85148 | 34050 ft | 462 kts | 285° |
| 2026-05-06 09:45 | 52.61289 | -15.95475 | 34052 ft | 463 kts | 285° |
| 2026-05-06 09:45 | 52.62468 | -16.05879 | 34052 ft | 463 kts | 285° |
| 2026-05-06 09:46 | 52.63630 | -16.16223 | 34051 ft | 463 kts | 285° |
| 2026-05-06 09:46 | 52.64790 | -16.26636 | 34051 ft | 462 kts | 284° |
| 2026-05-06 09:47 | 52.65928 | -16.36932 | 34056 ft | 462 kts | 284° |
| 2026-05-06 09:47 | 52.67068 | -16.47350 | 34057 ft | 461 kts | 284° |
| 2026-05-06 09:48 | 52.68185 | -16.57634 | 34057 ft | 461 kts | 284° |
| 2026-05-06 09:48 | 52.69304 | -16.68020 | 34057 ft | 460 kts | 284° |
| 2026-05-06 09:49 | 52.70407 | -16.78344 | 34057 ft | 460 kts | 284° |
| 2026-05-06 09:49 | 52.71505 | -16.88712 | 34057 ft | 459 kts | 284° |
| 2026-05-06 09:50 | 52.72590 | -16.99055 | 34057 ft | 458 kts | 284° |
| 2026-05-06 09:50 | 52.73663 | -17.09378 | 34058 ft | 458 kts | 283° |
| 2026-05-06 09:51 | 52.74726 | -17.19694 | 34058 ft | 457 kts | 283° |
| 2026-05-06 09:51 | 52.75779 | -17.29996 | 34058 ft | 457 kts | 283° |
| 2026-05-06 09:52 | 52.76818 | -17.40264 | 34058 ft | 457 kts | 283° |
| 2026-05-06 09:52 | 52.77856 | -17.50604 | 34058 ft | 456 kts | 283° |
| 2026-05-06 09:53 | 52.78880 | -17.60901 | 34059 ft | 456 kts | 283° |
| 2026-05-06 09:53 | 52.79895 | -17.71205 | 34059 ft | 457 kts | 283° |
| 2026-05-06 09:54 | 52.80904 | -17.81545 | 34060 ft | 457 kts | 283° |
| 2026-05-06 09:54 | 52.81899 | -17.91852 | 34061 ft | 457 kts | 283° |
| 2026-05-06 09:55 | 52.82890 | -18.02185 | 34062 ft | 457 kts | 283° |
| 2026-05-06 09:55 | 52.83873 | -18.12539 | 34062 ft | 457 kts | 283° |
| 2026-05-06 09:56 | 52.84843 | -18.22864 | 34064 ft | 456 kts | 282° |
| 2026-05-06 09:56 | 52.85804 | -18.33174 | 34065 ft | 456 kts | 282° |
| 2026-05-06 09:57 | 52.86754 | -18.43512 | 34066 ft | 455 kts | 282° |
| 2026-05-06 09:57 | 52.87698 | -18.53873 | 34066 ft | 455 kts | 282° |
| 2026-05-06 09:58 | 52.88625 | -18.64147 | 34067 ft | 455 kts | 282° |
| 2026-05-06 09:58 | 52.89546 | -18.74456 | 34067 ft | 454 kts | 281° |
| 2026-05-06 09:59 | 52.90459 | -18.84768 | 34068 ft | 454 kts | 281° |
| 2026-05-06 09:59 | 52.91362 | -18.95064 | 34068 ft | 454 kts | 281° |
| 2026-05-06 10:00 | 52.92259 | -19.05408 | 34069 ft | 454 kts | 281° |
| 2026-05-06 10:00 | 52.93144 | -19.15722 | 34069 ft | 453 kts | 281° |
| 2026-05-06 10:01 | 52.94017 | -19.26012 | 34069 ft | 453 kts | 281° |
| 2026-05-06 10:01 | 52.94880 | -19.36290 | 34070 ft | 453 kts | 281° |
| 2026-05-06 10:02 | 52.95740 | -19.46638 | 34070 ft | 453 kts | 281° |
| 2026-05-06 10:02 | 52.96587 | -19.56948 | 34071 ft | 453 kts | 281° |
| 2026-05-06 10:03 | 52.97425 | -19.67293 | 34071 ft | 453 kts | 280° |
| 2026-05-06 10:03 | 52.98251 | -19.77582 | 34072 ft | 452 kts | 280° |
| 2026-05-06 10:04 | 52.99067 | -19.87893 | 34072 ft | 452 kts | 280° |
| 2026-05-06 10:04 | 52.99870 | -19.98185 | 34072 ft | 452 kts | 279° |
| 2026-05-06 10:05 | 53.00382 | -20.08538 | 34073 ft | 453 kts | 277° |
| 2026-05-06 10:05 | 53.00809 | -20.18939 | 34073 ft | 453 kts | 277° |
| 2026-05-06 10:06 | 53.01226 | -20.29366 | 34071 ft | 453 kts | 277° |
| 2026-05-06 10:06 | 53.01632 | -20.39732 | 34072 ft | 453 kts | 277° |
| 2026-05-06 10:07 | 53.02029 | -20.50149 | 34087 ft | 453 kts | 277° |
| 2026-05-06 10:07 | 53.02417 | -20.60535 | 34113 ft | 453 kts | 277° |
| 2026-05-06 10:08 | 53.02797 | -20.70919 | 34129 ft | 453 kts | 276° |
| 2026-05-06 10:08 | 53.03169 | -20.81356 | 34133 ft | 453 kts | 276° |
| 2026-05-06 10:09 | 53.03530 | -20.91744 | 34133 ft | 453 kts | 276° |
| 2026-05-06 10:09 | 53.03882 | -21.02155 | 34133 ft | 453 kts | 276° |
| 2026-05-06 10:10 | 53.04224 | -21.12535 | 34131 ft | 453 kts | 275° |
| 2026-05-06 10:10 | 53.04558 | -21.22930 | 34132 ft | 453 kts | 275° |
| 2026-05-06 10:11 | 53.04885 | -21.33358 | 34134 ft | 453 kts | 275° |
| 2026-05-06 10:11 | 53.05202 | -21.43782 | 34135 ft | 453 kts | 275° |
| 2026-05-06 10:12 | 53.05508 | -21.54169 | 34136 ft | 453 kts | 275° |
| 2026-05-06 10:12 | 53.05807 | -21.64639 | 34137 ft | 453 kts | 275° |
| 2026-05-06 10:13 | 53.06095 | -21.75079 | 34138 ft | 453 kts | 274° |
| 2026-05-06 10:13 | 53.06376 | -21.85518 | 34139 ft | 453 kts | 274° |
| 2026-05-06 10:14 | 53.06645 | -21.95891 | 34140 ft | 453 kts | 274° |
| 2026-05-06 10:14 | 53.06907 | -22.06323 | 34141 ft | 453 kts | 274° |
| 2026-05-06 10:15 | 53.07162 | -22.16805 | 34139 ft | 453 kts | 274° |
| 2026-05-06 10:15 | 53.07405 | -22.27191 | 34140 ft | 453 kts | 274° |
| 2026-05-06 10:16 | 53.07638 | -22.37623 | 34144 ft | 453 kts | 274° |
| 2026-05-06 10:16 | 53.07861 | -22.48028 | 34146 ft | 453 kts | 274° |
| 2026-05-06 10:17 | 53.08076 | -22.58429 | 34146 ft | 452 kts | 273° |
| 2026-05-06 10:17 | 53.08282 | -22.68867 | 34147 ft | 452 kts | 272° |
| 2026-05-06 10:18 | 53.08481 | -22.79316 | 34255 ft | 456 kts | 272° |
| 2026-05-06 10:18 | 53.08577 | -22.84578 | 34508 ft | 455 kts | 272° |
| 2026-05-06 10:18 | 53.08670 | -22.89819 | 34795 ft | 454 kts | 272° |
| 2026-05-06 10:19 | 53.08761 | -22.95019 | 35094 ft | 453 kts | 272° |
| 2026-05-06 10:19 | 53.08849 | -23.00221 | 35377 ft | 452 kts | 272° |
| 2026-05-06 10:19 | 53.08935 | -23.05418 | 35652 ft | 452 kts | 272° |
| 2026-05-06 10:19 | 53.09019 | -23.10609 | 35916 ft | 451 kts | 272° |
| 2026-05-06 10:20 | 53.09100 | -23.15791 | 36163 ft | 450 kts | 272° |
| 2026-05-06 10:20 | 53.09179 | -23.20957 | 36395 ft | 450 kts | 272° |
| 2026-05-06 10:20 | 53.09255 | -23.26105 | 36616 ft | 449 kts | 272° |
| 2026-05-06 10:20 | 53.09330 | -23.31307 | 36823 ft | 449 kts | 272° |
| 2026-05-06 10:21 | 53.09402 | -23.36472 | 37003 ft | 449 kts | 272° |
| 2026-05-06 10:21 | 53.09472 | -23.41670 | 37149 ft | 449 kts | 272° |
| 2026-05-06 10:21 | 53.09604 | -23.52000 | 37184 ft | 448 kts | 272° |
| 2026-05-06 10:22 | 53.09727 | -23.62275 | 37179 ft | 447 kts | 272° |
| 2026-05-06 10:22 | 53.09841 | -23.72569 | 37174 ft | 447 kts | 271° |
| 2026-05-06 10:23 | 53.09947 | -23.82931 | 37164 ft | 447 kts | 271° |
| 2026-05-06 10:23 | 53.10044 | -23.93252 | 37169 ft | 448 kts | 271° |
| 2026-05-06 10:24 | 53.10132 | -24.03570 | 37175 ft | 448 kts | 271° |
| 2026-05-06 10:24 | 53.10210 | -24.13883 | 37176 ft | 448 kts | 271° |
| 2026-05-06 10:25 | 53.10282 | -24.24227 | 37185 ft | 448 kts | 271° |
| 2026-05-06 10:25 | 53.10345 | -24.34553 | 37207 ft | 449 kts | 271° |
| 2026-05-06 10:26 | 53.10397 | -24.44885 | 37225 ft | 449 kts | 271° |
| 2026-05-06 10:26 | 53.10439 | -24.55213 | 37231 ft | 449 kts | 271° |
| 2026-05-06 10:27 | 53.10473 | -24.65582 | 37233 ft | 449 kts | 270° |
| 2026-05-06 10:27 | 53.10498 | -24.75941 | 37234 ft | 450 kts | 270° |
| 2026-05-06 10:28 | 53.10515 | -24.86310 | 37234 ft | 450 kts | 270° |
| 2026-05-06 10:28 | 53.10522 | -24.96628 | 37235 ft | 450 kts | 270° |
| 2026-05-06 10:29 | 53.10521 | -25.07046 | 37236 ft | 450 kts | 270° |
| 2026-05-06 10:29 | 53.10510 | -25.17394 | 37237 ft | 450 kts | 269° |
| 2026-05-06 10:30 | 53.10490 | -25.27841 | 37238 ft | 451 kts | 269° |
| 2026-05-06 10:30 | 53.10461 | -25.38194 | 37240 ft | 451 kts | 269° |
| 2026-05-06 10:31 | 53.10423 | -25.48613 | 37269 ft | 452 kts | 269° |
| 2026-05-06 10:31 | 53.10376 | -25.59030 | 37318 ft | 452 kts | 269° |
| 2026-05-06 10:32 | 53.10320 | -25.69385 | 37344 ft | 452 kts | 268° |
| 2026-05-06 10:32 | 53.10255 | -25.79834 | 37351 ft | 452 kts | 268° |
| 2026-05-06 10:33 | 53.10181 | -25.90248 | 37351 ft | 452 kts | 268° |
| 2026-05-06 10:33 | 53.10097 | -26.00654 | 37349 ft | 452 kts | 268° |
| 2026-05-06 10:34 | 53.10005 | -26.11106 | 37347 ft | 453 kts | 268° |
| 2026-05-06 10:34 | 53.09903 | -26.21555 | 37342 ft | 453 kts | 268° |
| 2026-05-06 10:35 | 53.09795 | -26.31990 | 37327 ft | 453 kts | 268° |
| 2026-05-06 10:35 | 53.09676 | -26.42437 | 37328 ft | 454 kts | 268° |
| 2026-05-06 10:36 | 53.09544 | -26.52893 | 37339 ft | 454 kts | 268° |
| 2026-05-06 10:36 | 53.09406 | -26.63337 | 37341 ft | 455 kts | 268° |
| 2026-05-06 10:37 | 53.09259 | -26.73797 | 37338 ft | 455 kts | 267° |
| 2026-05-06 10:37 | 53.09101 | -26.84281 | 37333 ft | 455 kts | 267° |
| 2026-05-06 10:38 | 53.08934 | -26.94751 | 37328 ft | 455 kts | 267° |
| 2026-05-06 10:38 | 53.08757 | -27.05255 | 37324 ft | 455 kts | 267° |
| 2026-05-06 10:39 | 53.08571 | -27.15748 | 37322 ft | 455 kts | 267° |
| 2026-05-06 10:39 | 53.08376 | -27.26213 | 37321 ft | 456 kts | 267° |
| 2026-05-06 10:40 | 53.08172 | -27.36668 | 37322 ft | 456 kts | 267° |
| 2026-05-06 10:40 | 53.07958 | -27.47195 | 37324 ft | 456 kts | 267° |
| 2026-05-06 10:41 | 53.07736 | -27.57697 | 37326 ft | 457 kts | 267° |
| 2026-05-06 10:41 | 53.07504 | -27.68235 | 37328 ft | 457 kts | 266° |
| 2026-05-06 10:42 | 53.07262 | -27.78755 | 37329 ft | 457 kts | 266° |
| 2026-05-06 10:42 | 53.07011 | -27.89258 | 37330 ft | 457 kts | 266° |
| 2026-05-06 10:43 | 53.06753 | -27.99713 | 37332 ft | 457 kts | 266° |
| 2026-05-06 10:44 | 53.06346 | -28.15526 | 37312 ft | 457 kts | 266° |
| 2026-05-06 10:44 | 53.06062 | -28.26045 | 37301 ft | 457 kts | 266° |
| 2026-05-06 10:45 | 53.05770 | -28.36533 | 37319 ft | 458 kts | 265° |
| 2026-05-06 10:45 | 53.05466 | -28.47066 | 37329 ft | 458 kts | 265° |
| 2026-05-06 10:46 | 53.05154 | -28.57582 | 37330 ft | 458 kts | 265° |
| 2026-05-06 10:46 | 53.04832 | -28.68121 | 37331 ft | 458 kts | 265° |
| 2026-05-06 10:47 | 53.04501 | -28.78674 | 37330 ft | 457 kts | 265° |
| 2026-05-06 10:47 | 53.04163 | -28.89134 | 37329 ft | 458 kts | 265° |
| 2026-05-06 10:48 | 53.03814 | -28.99681 | 37328 ft | 458 kts | 265° |
| 2026-05-06 10:48 | 53.03457 | -29.10166 | 37328 ft | 457 kts | 265° |
| 2026-05-06 10:49 | 53.03089 | -29.20696 | 37327 ft | 457 kts | 265° |
| 2026-05-06 10:49 | 53.02714 | -29.31191 | 37327 ft | 457 kts | 265° |
| 2026-05-06 10:50 | 53.02329 | -29.41665 | 37327 ft | 457 kts | 265° |
| 2026-05-06 10:50 | 53.01934 | -29.52169 | 37327 ft | 457 kts | 265° |
| 2026-05-06 10:51 | 53.01530 | -29.62640 | 37328 ft | 457 kts | 265° |
| 2026-05-06 10:51 | 53.01117 | -29.73082 | 37329 ft | 457 kts | 264° |
| 2026-05-06 10:52 | 53.00694 | -29.83561 | 37331 ft | 457 kts | 264° |
| 2026-05-06 10:52 | 53.00261 | -29.94035 | 37332 ft | 457 kts | 264° |
| 2026-05-06 10:53 | 52.99976 | -30.04544 | 37334 ft | 458 kts | 268° |
| 2026-05-06 10:53 | 52.99890 | -30.15114 | 37335 ft | 458 kts | 268° |
| 2026-05-06 10:54 | 52.99796 | -30.25638 | 37310 ft | 458 kts | 268° |
| 2026-05-06 10:54 | 52.99692 | -30.36126 | 37297 ft | 458 kts | 268° |
| 2026-05-06 10:55 | 52.99575 | -30.46673 | 37315 ft | 458 kts | 268° |
| 2026-05-06 10:55 | 52.99449 | -30.57185 | 37325 ft | 458 kts | 268° |
| 2026-05-06 10:56 | 52.99313 | -30.67736 | 37327 ft | 458 kts | 267° |
| 2026-05-06 10:56 | 52.99168 | -30.78284 | 37327 ft | 458 kts | 267° |
| 2026-05-06 10:57 | 52.99014 | -30.88810 | 37327 ft | 458 kts | 267° |
| 2026-05-06 10:57 | 52.98850 | -30.99359 | 37327 ft | 458 kts | 267° |
| 2026-05-06 10:58 | 52.98677 | -31.09848 | 37326 ft | 458 kts | 267° |
| 2026-05-06 10:58 | 52.98495 | -31.20413 | 37328 ft | 459 kts | 267° |
| 2026-05-06 10:59 | 52.98305 | -31.30907 | 37328 ft | 459 kts | 267° |
| 2026-05-06 10:59 | 52.98103 | -31.41479 | 37318 ft | 459 kts | 267° |
| 2026-05-06 11:00 | 52.97894 | -31.51985 | 37310 ft | 459 kts | 267° |
| 2026-05-06 11:00 | 52.97673 | -31.62570 | 37308 ft | 459 kts | 267° |
| 2026-05-06 11:01 | 52.97444 | -31.73093 | 37308 ft | 459 kts | 266° |
| 2026-05-06 11:01 | 52.97207 | -31.83579 | 37309 ft | 459 kts | 266° |
| 2026-05-06 11:02 | 52.96960 | -31.94132 | 37310 ft | 459 kts | 266° |
| 2026-05-06 11:02 | 52.96703 | -32.04684 | 37310 ft | 460 kts | 266° |
| 2026-05-06 11:03 | 52.96434 | -32.15282 | 37291 ft | 460 kts | 266° |
| 2026-05-06 11:03 | 52.96159 | -32.25773 | 37282 ft | 460 kts | 266° |
| 2026-05-06 11:04 | 52.95872 | -32.36367 | 37299 ft | 460 kts | 266° |
| 2026-05-06 11:04 | 52.95576 | -32.46938 | 37306 ft | 460 kts | 266° |
| 2026-05-06 11:05 | 52.95272 | -32.57519 | 37307 ft | 460 kts | 266° |
| 2026-05-06 11:05 | 52.94960 | -32.68015 | 37308 ft | 460 kts | 265° |
| 2026-05-06 11:06 | 52.94637 | -32.78588 | 37307 ft | 460 kts | 265° |
| 2026-05-06 11:06 | 52.94304 | -32.89154 | 37306 ft | 460 kts | 265° |
| 2026-05-06 11:07 | 52.93964 | -32.99650 | 37305 ft | 460 kts | 266° |
| 2026-05-06 11:07 | 52.93610 | -33.10256 | 37304 ft | 461 kts | 266° |
| 2026-05-06 11:08 | 52.93250 | -33.20788 | 37304 ft | 461 kts | 266° |
| 2026-05-06 11:08 | 52.92879 | -33.31362 | 37303 ft | 461 kts | 266° |
| 2026-05-06 11:09 | 52.92500 | -33.41882 | 37303 ft | 461 kts | 266° |
| 2026-05-06 11:09 | 52.92110 | -33.52484 | 37303 ft | 461 kts | 266° |
| 2026-05-06 11:10 | 52.91712 | -33.63018 | 37304 ft | 460 kts | 266° |
| 2026-05-06 11:10 | 52.91305 | -33.73542 | 37304 ft | 460 kts | 265° |
| 2026-05-06 11:11 | 52.90890 | -33.84025 | 37306 ft | 460 kts | 265° |
| 2026-05-06 11:11 | 52.90463 | -33.94614 | 37306 ft | 460 kts | 265° |
| 2026-05-06 11:12 | 52.90029 | -34.05098 | 37308 ft | 460 kts | 265° |
| 2026-05-06 11:12 | 52.89584 | -34.15665 | 37308 ft | 460 kts | 265° |
| 2026-05-06 11:13 | 52.89131 | -34.26157 | 37298 ft | 460 kts | 265° |
| 2026-05-06 11:13 | 52.88668 | -34.36676 | 37294 ft | 460 kts | 265° |
| 2026-05-06 11:14 | 52.88194 | -34.47247 | 37304 ft | 460 kts | 265° |
| 2026-05-06 11:14 | 52.87713 | -34.57765 | 37309 ft | 460 kts | 265° |
| 2026-05-06 11:15 | 52.87221 | -34.68285 | 37311 ft | 460 kts | 264° |
| 2026-05-06 11:15 | 52.86723 | -34.78760 | 37311 ft | 460 kts | 264° |
| 2026-05-06 11:16 | 52.86212 | -34.89313 | 37311 ft | 460 kts | 264° |
| 2026-05-06 11:16 | 52.85693 | -34.99828 | 37311 ft | 460 kts | 265° |
| 2026-05-06 11:17 | 52.85165 | -35.10342 | 37310 ft | 460 kts | 265° |
| 2026-05-06 11:17 | 52.84630 | -35.20817 | 37310 ft | 460 kts | 265° |
| 2026-05-06 11:18 | 52.84084 | -35.31323 | 37309 ft | 460 kts | 265° |
| 2026-05-06 11:18 | 52.83527 | -35.41824 | 37309 ft | 460 kts | 265° |
| 2026-05-06 11:19 | 52.82961 | -35.52348 | 37309 ft | 460 kts | 265° |
| 2026-05-06 11:19 | 52.82387 | -35.62828 | 37309 ft | 460 kts | 265° |
| 2026-05-06 11:20 | 52.81802 | -35.73325 | 37309 ft | 460 kts | 264° |
| 2026-05-06 11:20 | 52.81211 | -35.83789 | 37309 ft | 460 kts | 264° |
| 2026-05-06 11:21 | 52.80608 | -35.94282 | 37302 ft | 460 kts | 264° |
| 2026-05-06 11:21 | 52.79997 | -36.04770 | 37280 ft | 460 kts | 264° |
| 2026-05-06 11:22 | 52.79378 | -36.15218 | 37254 ft | 460 kts | 264° |
| 2026-05-06 11:22 | 52.78746 | -36.25733 | 37246 ft | 460 kts | 264° |
| 2026-05-06 11:23 | 52.78110 | -36.36172 | 37249 ft | 460 kts | 264° |
| 2026-05-06 11:23 | 52.77461 | -36.46683 | 37250 ft | 460 kts | 264° |
| 2026-05-06 11:24 | 52.76805 | -36.57116 | 37249 ft | 460 kts | 264° |
| 2026-05-06 11:24 | 52.76140 | -36.67562 | 37249 ft | 460 kts | 263° |
| 2026-05-06 11:25 | 52.75463 | -36.78037 | 37248 ft | 460 kts | 264° |
| 2026-05-06 11:25 | 52.74778 | -36.88488 | 37247 ft | 460 kts | 264° |
| 2026-05-06 11:26 | 52.74082 | -36.98972 | 37247 ft | 460 kts | 264° |
| 2026-05-06 11:26 | 52.73380 | -37.09421 | 37246 ft | 460 kts | 264° |
| 2026-05-06 11:27 | 52.72667 | -37.19868 | 37246 ft | 460 kts | 264° |
| 2026-05-06 11:27 | 52.71946 | -37.30308 | 37247 ft | 461 kts | 264° |
| 2026-05-06 11:28 | 52.71212 | -37.40788 | 37254 ft | 460 kts | 264° |
| 2026-05-06 11:28 | 52.70472 | -37.51221 | 37274 ft | 460 kts | 264° |
| 2026-05-06 11:29 | 52.69722 | -37.61666 | 37292 ft | 460 kts | 264° |
| 2026-05-06 11:29 | 52.68962 | -37.72102 | 37298 ft | 460 kts | 263° |
| 2026-05-06 11:30 | 52.68197 | -37.82481 | 37299 ft | 460 kts | 263° |
| 2026-05-06 11:30 | 52.67422 | -37.92900 | 37300 ft | 460 kts | 263° |
| 2026-05-06 11:31 | 52.66636 | -38.03346 | 37300 ft | 459 kts | 263° |
| 2026-05-06 11:31 | 52.65848 | -38.13681 | 37300 ft | 459 kts | 263° |
| 2026-05-06 11:32 | 52.65046 | -38.24070 | 37295 ft | 459 kts | 263° |
| 2026-05-06 11:32 | 52.64231 | -38.34486 | 37293 ft | 459 kts | 263° |
| 2026-05-06 11:33 | 52.63414 | -38.44829 | 37297 ft | 459 kts | 263° |
| 2026-05-06 11:33 | 52.62583 | -38.55232 | 37298 ft | 459 kts | 263° |
| 2026-05-06 11:34 | 52.61741 | -38.65637 | 37298 ft | 459 kts | 263° |
| 2026-05-06 11:34 | 52.60893 | -38.75998 | 37298 ft | 459 kts | 263° |
| 2026-05-06 11:35 | 52.60040 | -38.86321 | 37297 ft | 459 kts | 263° |
| 2026-05-06 11:35 | 52.59172 | -38.96686 | 37297 ft | 459 kts | 263° |
| 2026-05-06 11:36 | 52.58291 | -39.07091 | 37296 ft | 459 kts | 263° |
| 2026-05-06 11:36 | 52.57410 | -39.17405 | 37296 ft | 459 kts | 263° |
| 2026-05-06 11:37 | 52.56516 | -39.27752 | 37296 ft | 459 kts | 263° |
| 2026-05-06 11:37 | 52.55618 | -39.38052 | 37295 ft | 459 kts | 263° |
| 2026-05-06 11:38 | 52.54707 | -39.48389 | 37295 ft | 459 kts | 263° |
| 2026-05-06 11:38 | 52.53785 | -39.58743 | 37295 ft | 458 kts | 263° |
| 2026-05-06 11:39 | 52.52857 | -39.69057 | 37295 ft | 457 kts | 262° |
| 2026-05-06 11:39 | 52.51926 | -39.79293 | 37295 ft | 457 kts | 263° |
| 2026-05-06 11:40 | 52.50979 | -39.89592 | 37294 ft | 456 kts | 263° |
| 2026-05-06 11:40 | 52.49847 | -39.99734 | 37294 ft | 456 kts | 258° |
| 2026-05-06 11:41 | 52.48100 | -40.09738 | 37294 ft | 457 kts | 254° |
| 2026-05-06 11:41 | 52.46159 | -40.19588 | 37293 ft | 457 kts | 254° |
| 2026-05-06 11:42 | 52.44202 | -40.29465 | 37292 ft | 457 kts | 254° |
| 2026-05-06 11:42 | 52.42236 | -40.39341 | 37291 ft | 457 kts | 254° |
| 2026-05-06 11:43 | 52.40263 | -40.49202 | 37290 ft | 457 kts | 254° |
| 2026-05-06 11:43 | 52.38282 | -40.59049 | 37289 ft | 457 kts | 254° |
| 2026-05-06 11:44 | 52.35296 | -40.73799 | 37289 ft | 457 kts | 253° |
| 2026-05-06 11:44 | 52.33304 | -40.83579 | 37289 ft | 458 kts | 253° |
| 2026-05-06 11:45 | 52.31280 | -40.93466 | 37290 ft | 458 kts | 253° |
| 2026-05-06 11:45 | 52.29261 | -41.03276 | 37290 ft | 458 kts | 253° |
| 2026-05-06 11:46 | 52.27228 | -41.13106 | 37291 ft | 458 kts | 253° |
| 2026-05-06 11:46 | 52.25186 | -41.22934 | 37292 ft | 458 kts | 253° |
| 2026-05-06 11:47 | 52.23145 | -41.32709 | 37292 ft | 457 kts | 253° |
| 2026-05-06 11:47 | 52.21106 | -41.42425 | 37293 ft | 457 kts | 254° |
| 2026-05-06 11:48 | 52.19038 | -41.52238 | 37293 ft | 456 kts | 254° |
| 2026-05-06 11:48 | 52.16988 | -41.61914 | 37292 ft | 456 kts | 254° |
| 2026-05-06 11:49 | 52.14904 | -41.71699 | 37292 ft | 456 kts | 253° |
| 2026-05-06 11:49 | 52.12834 | -41.81369 | 37290 ft | 455 kts | 253° |
| 2026-05-06 11:50 | 52.10752 | -41.91054 | 37287 ft | 455 kts | 253° |
| 2026-05-06 11:50 | 52.08664 | -42.00728 | 37285 ft | 455 kts | 253° |
| 2026-05-06 11:51 | 52.06570 | -42.10381 | 37282 ft | 454 kts | 253° |
| 2026-05-06 11:51 | 52.04472 | -42.20007 | 37279 ft | 454 kts | 253° |
| 2026-05-06 11:52 | 52.02367 | -42.29618 | 37277 ft | 454 kts | 253° |
| 2026-05-06 11:52 | 52.00245 | -42.39271 | 37275 ft | 454 kts | 253° |
| 2026-05-06 11:53 | 51.98134 | -42.48822 | 37273 ft | 454 kts | 253° |
| 2026-05-06 11:53 | 51.95993 | -42.58460 | 37280 ft | 454 kts | 253° |
| 2026-05-06 11:54 | 51.93856 | -42.68038 | 37291 ft | 454 kts | 253° |
| 2026-05-06 11:54 | 51.91721 | -42.77562 | 37290 ft | 453 kts | 253° |
| 2026-05-06 11:55 | 51.89562 | -42.87150 | 37285 ft | 452 kts | 253° |
| 2026-05-06 11:55 | 51.87416 | -42.96640 | 37283 ft | 452 kts | 253° |
| 2026-05-06 11:56 | 51.85249 | -43.06177 | 37281 ft | 452 kts | 253° |
| 2026-05-06 11:56 | 51.83087 | -43.15649 | 37279 ft | 451 kts | 253° |
| 2026-05-06 11:57 | 51.80918 | -43.25108 | 37277 ft | 451 kts | 253° |
| 2026-05-06 11:57 | 51.78751 | -43.34533 | 37274 ft | 450 kts | 253° |
| 2026-05-06 11:58 | 51.76556 | -43.44027 | 37269 ft | 450 kts | 253° |
| 2026-05-06 11:58 | 51.74366 | -43.53444 | 37266 ft | 450 kts | 253° |
| 2026-05-06 11:59 | 51.72173 | -43.62837 | 37262 ft | 450 kts | 254° |
| 2026-05-06 11:59 | 51.69971 | -43.72221 | 37263 ft | 450 kts | 253° |
| 2026-05-06 12:00 | 51.67770 | -43.81612 | 37260 ft | 450 kts | 253° |
| 2026-05-06 12:00 | 51.65539 | -43.91054 | 37260 ft | 450 kts | 253° |
| 2026-05-06 12:01 | 51.63321 | -44.00405 | 37259 ft | 450 kts | 253° |
| 2026-05-06 12:01 | 51.61087 | -44.09749 | 37261 ft | 450 kts | 253° |
| 2026-05-06 12:02 | 51.58852 | -44.19083 | 37266 ft | 450 kts | 253° |
| 2026-05-06 12:02 | 51.56594 | -44.28465 | 37267 ft | 450 kts | 253° |
| 2026-05-06 12:03 | 51.54335 | -44.37796 | 37269 ft | 450 kts | 253° |
| 2026-05-06 12:03 | 51.52089 | -44.47069 | 37270 ft | 449 kts | 253° |
| 2026-05-06 12:04 | 51.49820 | -44.56366 | 37273 ft | 449 kts | 253° |
| 2026-05-06 12:04 | 51.47542 | -44.65689 | 37275 ft | 448 kts | 252° |
| 2026-05-06 12:05 | 51.45281 | -44.74904 | 37275 ft | 448 kts | 252° |
| 2026-05-06 12:05 | 51.43002 | -44.84169 | 37275 ft | 447 kts | 252° |
| 2026-05-06 12:06 | 51.40716 | -44.93366 | 37273 ft | 447 kts | 252° |
| 2026-05-06 12:06 | 51.38412 | -45.02598 | 37320 ft | 446 kts | 253° |
| 2026-05-06 12:07 | 51.36126 | -45.11747 | 37416 ft | 443 kts | 253° |
| 2026-05-06 12:07 | 51.33844 | -45.20848 | 37391 ft | 440 kts | 253° |
| 2026-05-06 12:08 | 51.31578 | -45.29851 | 37310 ft | 438 kts | 254° |
| 2026-05-06 12:08 | 51.29301 | -45.38866 | 37286 ft | 437 kts | 254° |
| 2026-05-06 12:09 | 51.27023 | -45.47832 | 37275 ft | 437 kts | 255° |
| 2026-05-06 12:09 | 51.24740 | -45.56782 | 37263 ft | 436 kts | 255° |
| 2026-05-06 12:10 | 51.22469 | -45.65693 | 37207 ft | 436 kts | 254° |
| 2026-05-06 12:10 | 51.20165 | -45.74654 | 37131 ft | 437 kts | 254° |
| 2026-05-06 12:11 | 51.17863 | -45.83557 | 37100 ft | 436 kts | 254° |
| 2026-05-06 12:11 | 51.15568 | -45.92417 | 37089 ft | 435 kts | 254° |
| 2026-05-06 12:12 | 51.13254 | -46.01318 | 37084 ft | 436 kts | 254° |
| 2026-05-06 12:12 | 51.10948 | -46.10158 | 37095 ft | 436 kts | 254° |
| 2026-05-06 12:13 | 51.08613 | -46.19069 | 37111 ft | 435 kts | 254° |
| 2026-05-06 12:13 | 51.06302 | -46.27859 | 37102 ft | 434 kts | 254° |
| 2026-05-06 12:14 | 51.03963 | -46.36717 | 37085 ft | 434 kts | 254° |
| 2026-05-06 12:14 | 51.01639 | -46.45485 | 37081 ft | 433 kts | 254° |
| 2026-05-06 12:15 | 50.99297 | -46.54289 | 37079 ft | 433 kts | 254° |
| 2026-05-06 12:15 | 50.96968 | -46.63005 | 37078 ft | 433 kts | 254° |
| 2026-05-06 12:16 | 50.94621 | -46.71762 | 37078 ft | 433 kts | 253° |
| 2026-05-06 12:16 | 50.92259 | -46.80541 | 37077 ft | 433 kts | 253° |
| 2026-05-06 12:17 | 50.89905 | -46.89250 | 37077 ft | 432 kts | 253° |
| 2026-05-06 12:17 | 50.87547 | -46.97945 | 37076 ft | 432 kts | 253° |
| 2026-05-06 12:18 | 50.85167 | -47.06691 | 37077 ft | 432 kts | 253° |
| 2026-05-06 12:18 | 50.82784 | -47.15416 | 37077 ft | 431 kts | 253° |
| 2026-05-06 12:19 | 50.80408 | -47.24079 | 37077 ft | 431 kts | 253° |
| 2026-05-06 12:19 | 50.78015 | -47.32772 | 37076 ft | 431 kts | 253° |
| 2026-05-06 12:20 | 50.75638 | -47.41372 | 37076 ft | 430 kts | 253° |
| 2026-05-06 12:20 | 50.73252 | -47.49976 | 37076 ft | 430 kts | 253° |
| 2026-05-06 12:21 | 50.70864 | -47.58552 | 37075 ft | 429 kts | 253° |
| 2026-05-06 12:21 | 50.68465 | -47.67141 | 37076 ft | 429 kts | 252° |
| 2026-05-06 12:22 | 50.66052 | -47.75747 | 37075 ft | 429 kts | 252° |
| 2026-05-06 12:22 | 50.63644 | -47.84303 | 37074 ft | 429 kts | 252° |
| 2026-05-06 12:23 | 50.61239 | -47.92822 | 37073 ft | 429 kts | 252° |
| 2026-05-06 12:23 | 50.58807 | -48.01399 | 37071 ft | 428 kts | 252° |
| 2026-05-06 12:24 | 50.56393 | -48.09888 | 37070 ft | 428 kts | 252° |
| 2026-05-06 12:24 | 50.53968 | -48.18380 | 37072 ft | 428 kts | 252° |
| 2026-05-06 12:25 | 50.51535 | -48.26875 | 37076 ft | 427 kts | 252° |
| 2026-05-06 12:25 | 50.49094 | -48.35369 | 37071 ft | 427 kts | 252° |
| 2026-05-06 12:26 | 50.46665 | -48.43782 | 37064 ft | 427 kts | 252° |
| 2026-05-06 12:26 | 50.44210 | -48.52259 | 37063 ft | 427 kts | 252° |
| 2026-05-06 12:27 | 50.41758 | -48.60694 | 37062 ft | 427 kts | 252° |
| 2026-05-06 12:27 | 50.39285 | -48.69173 | 37063 ft | 428 kts | 251° |
| 2026-05-06 12:28 | 50.36829 | -48.77577 | 37064 ft | 428 kts | 251° |
| 2026-05-06 12:28 | 50.34357 | -48.85999 | 37066 ft | 428 kts | 251° |
| 2026-05-06 12:29 | 50.31864 | -48.94458 | 37068 ft | 428 kts | 251° |
| 2026-05-06 12:29 | 50.29380 | -49.02858 | 37069 ft | 428 kts | 251° |
| 2026-05-06 12:30 | 50.26888 | -49.11263 | 37070 ft | 427 kts | 251° |
| 2026-05-06 12:30 | 50.24393 | -49.19644 | 37071 ft | 427 kts | 251° |
| 2026-05-06 12:31 | 50.21893 | -49.28009 | 37073 ft | 426 kts | 251° |
| 2026-05-06 12:31 | 50.19382 | -49.36384 | 37074 ft | 426 kts | 250° |
| 2026-05-06 12:32 | 50.16872 | -49.44724 | 37079 ft | 426 kts | 250° |
| 2026-05-06 12:32 | 50.14360 | -49.53044 | 37086 ft | 426 kts | 250° |
| 2026-05-06 12:33 | 50.11845 | -49.61340 | 37089 ft | 426 kts | 250° |
| 2026-05-06 12:33 | 50.09310 | -49.69675 | 37091 ft | 426 kts | 249° |
| 2026-05-06 12:34 | 50.06789 | -49.77937 | 37090 ft | 426 kts | 249° |
| 2026-05-06 12:34 | 50.04239 | -49.86263 | 37089 ft | 426 kts | 249° |